Observations for BOURNEMOUTH AIRPORT, United Kingdom (EGHH)

EGHH 221420Z 36011KT 340V060 9999 FEW042 14/05 Q1037
EGHH 221350Z 04011KT 340V060 9999 FEW030 14/05 Q1037
EGHH 221320Z 03011KT 330V030 9999 FEW030 14/05 Q1037
EGHH 221250Z 02010KT 9999 FEW030 14/06 Q1037
EGHH 221220Z 02010KT 330V050 9999 FEW030 13/06 Q1037
EGHH 221150Z 01012KT 9999 FEW030 13/06 Q1037
EGHH 221120Z 02014KT 9999 FEW030 13/05 Q1037
EGHH 221050Z 01014KT 9999 FEW028 13/06 Q1037
EGHH 221020Z 01011KT 9999 FEW018 12/05 Q1037
EGHH 220950Z 02013KT CAVOK 11/05 Q1037  
EGHH 220920Z 02012KT CAVOK 10/05 Q1037  
EGHH 220850Z 01011KT 330V080 CAVOK 10/05 Q1037  
EGHH 220820Z 01010KT 320V050 CAVOK 08/04 Q1037  
EGHH 220750Z 36009KT 330V050 CAVOK 07/04 Q1037  
EGHH 220720Z 36008KT CAVOK 06/03 Q1036  
EGHH 220650Z 35006KT 320V020 CAVOK 06/03 Q1036  
EGHH 220620Z 01006KT CAVOK 06/03 Q1035  
EGHH 220550Z 02008KT CAVOK 07/03 Q1035  
EGHH 220520Z 01009KT 340V060 CAVOK 07/04 Q1034  
EGHH 220450Z 02009KT CAVOK 08/04 Q1034  
EGHH 212050Z 35005KT 9999 BKN028 12/12 Q1029
EGHH 212020Z 33004KT 9999 FEW028 10/09 Q1029
EGHH 211950Z 33004KT CAVOK 10/09 Q1028  
EGHH 211920Z 33005KT CAVOK 10/09 Q1028  
EGHH 211850Z 32005KT CAVOK 10/08 Q1028  
EGHH 211820Z VRB04KT CAVOK 12/10 Q1028  
EGHH 211750Z VRB01KT CAVOK 13/11 Q1028  
EGHH 211720Z 31005KT CAVOK 13/11 Q1027  
EGHH 211650Z 30005KT CAVOK 15/11 Q1027  
EGHH 211620Z 32004KT CAVOK 16/11 Q1027  
EGHH 211550Z 29006KT 260V340 CAVOK 17/12 Q1027  
EGHH 211520Z 30007KT 260V320 CAVOK 18/11 Q1027  
EGHH 211450Z 30005KT 270V330 CAVOK 18/11 Q1027  
EGHH 211420Z 28005KT 230V320 CAVOK 18/12 Q1027  
EGHH 211350Z 29005KT 260V320 CAVOK 18/12 Q1027